Latest Coastal Weather Observations for Geelong Racecourse

IDV60701

Issued at 9:51 am EST Thursday 29 September 2016 (issued every 10 minutes, with the page automatically refreshed every 10 minutes)

About coastal observations | Map of coastal stations | Coastal observations for VIC | Marine services | Other Formats
Station Details ID: 087184 Name: GEELONG RACECOURSE Lat: -38.17 Lon: 144.38 Height: 12.9 m
Data from the previous 72 hours. | See also: Recent months at Geelong Racecourse
Date/Time
EST
Temp
°C
Wind Pressure Rain since
9am
mm
Weather Cloud Vis
km
Sea
Height
m
Swell
Dir  Spd
kts
Gust
kts
hPa Trend Height
m
Period
s
Dir
29/09:30am 13.2 NW 12 17 988.7 - 0.0 - - - - - - -
29/09:00am 12.3 NW 14 20 989.1 - 3.4 - - - - - - -
29/08:30am 13.9 NW 8 13 988.8 - 3.4 - - - - - - -
29/08:00am 12.6 NNW 6 8 988.9 - 3.4 - - - - - - -
29/07:30am 12.4 NW 6 9 988.7 - 3.4 - - - - - - -
29/07:00am 12.6 NW 11 18 988.5 - 3.4 - - - - - - -
29/06:30am 13.2 NNW 7 13 987.8 - 3.4 - - - - - - -
29/06:00am 13.4 NNE 9 15 987.2 - 3.4 - - - - - - -
29/05:30am 13.2 NNE 10 16 987.4 - 3.4 - - - - - - -
29/05:00am 13.2 NNE 10 16 987.2 - 3.4 - - - - - - -
29/04:30am 13.3 NNE 12 19 987.5 - 3.4 - - - - - - -
29/04:03am 13.4 NNE 15 27 987.6 - 3.4 - - - - - - -
29/04:00am 13.4 NNE 14 23 987.6 - 3.4 - - - - - - -
29/03:30am 13.4 NNE 15 22 988.3 - 3.4 - - - - - - -
29/03:04am 13.3 NNE 16 28 988.5 - 3.4 - - - - - - -
29/03:00am 13.3 NE 15 23 988.6 - 3.4 Recent precip. - - - - - -
29/02:30am 12.8 NE 16 25 988.3 - 3.4 - - - - - - -
29/02:23am 12.8 NE 15 25 988.9 - 3.4 - - - - - - -
29/02:00am 13.1 NE 13 21 990.4 - 2.8 - - - - - - -
29/01:30am 13.0 NNE 10 16 991.6 - 2.4 - - - - - - -
29/01:00am 13.0 NNE 11 17 992.4 - 2.4 - - - - - - -
29/12:30am 13.9 NE 14 21 992.8 - 1.8 - - - - - - -
29/12:00am 13.8 NE 11 18 993.2 - 1.4 Rain - - - - - -
 
Date/Time
EST
Temp
°C
Wind Pressure Rain since
9am
mm
Weather Cloud Vis
km
Sea
Height
m
Swell
Dir  Spd
kts
Gust
kts
hPa Trend Height
m
Period
s
Dir
28/11:30pm 14.3 NE 11 18 994.3 - 0.6 - - - - - - -
28/11:00pm 14.2 NE 8 14 995.1 - 0.6 - - - - - - -
28/10:30pm 14.1 ENE 9 14 996.6 - 0.2 - - - - - - -
28/10:00pm 14.7 ENE 7 14 997.8 - 0.0 - - - - - - -
28/09:30pm 14.8 NE 7 11 998.7 - 0.0 - - - - - - -
28/09:00pm 14.9 NNE 9 17 998.9 - 0.0 - - - - - - -
28/08:30pm 14.9 NNE 10 15 998.8 - 0.0 - - - - - - -
28/08:00pm 15.1 NE 11 19 998.9 - 0.0 - - - - - - -
28/07:30pm 15.1 NE 10 14 999.2 - 0.0 - - - - - - -
28/07:00pm 15.2 NE 12 19 999.4 - 0.0 - - - - - - -
28/06:30pm 15.2 NE 10 17 1000.5 - 0.0 - - - - - - -
28/06:00pm 15.3 NE 12 18 1000.8 - 0.0 - - - - - - -
28/05:30pm 15.5 NE 12 18 1001.0 - 0.0 - - - - - - -
28/05:00pm 15.8 NNE 13 22 1001.4 - 0.0 - - - - - - -
28/04:30pm 16.1 NNE 13 22 1001.9 - 0.0 - - - - - - -
28/04:00pm 16.6 NNE 16 24 1002.1 - 0.0 - - - - - - -
28/03:30pm 17.0 NE 14 21 1002.0 - 0.0 - - - - - - -
28/03:00pm 17.3 NE 14 21 1002.7 - 0.0 - - - - - - -
28/02:30pm 18.4 NE 13 21 1003.2 - 0.0 - - - - - - -
28/02:00pm 18.9 NE 11 18 1003.9 - 0.0 - - - - - - -
28/01:30pm 18.4 NE 9 14 1005.3 - 0.0 - - - - - - -
28/01:00pm 17.8 ENE 10 15 1006.0 - 0.0 - - - - - - -
28/12:30pm 17.9 NE 10 15 1007.1 - 0.0 - - - - - - -
28/12:00pm 17.6 ENE 8 11 1008.2 - 0.0 - - - - - - -
28/11:30am 17.2 NE 8 11 1009.3 - 0.0 - - - - - - -
28/11:00am 17.1 NE 6 8 1010.1 - 0.0 - - - - - - -
28/10:30am 16.8 NE 6 8 1010.6 - 0.0 - - - - - - -
28/10:00am 15.7 NE 6 9 1010.9 - 0.0 - - - - - - -
28/09:30am 14.9 NE 6 8 1011.3 - 0.0 - - - - - - -
28/09:00am 14.6 NE 5 8 1011.6 - 1.2 - - - - - - -
28/08:30am 13.8 N 5 9 1012.0 - 1.2 - - - - - - -
28/08:00am 12.3 N 4 7 1012.2 - 1.2 - - - - - - -
28/07:30am 11.1 N 5 7 1012.2 - 1.2 - - - - - - -
28/07:00am 9.6 NNW 3 5 1012.3 - 1.2 - - - - - - -
28/06:30am 8.1 NNW 5 7 1012.2 - 1.2 - - - - - - -
28/06:00am 7.1 NNW 5 6 1012.0 - 1.2 - - - - - - -
28/05:30am 6.9 N 4 5 1012.0 - 1.2 - - - - - - -
28/05:00am 6.6 NNW 4 4 1012.1 - 1.2 - - - - - - -
28/04:30am 6.8 NNW 3 5 1012.0 - 1.2 - - - - - - -
28/04:00am 7.5 NNW 4 6 1012.0 - 1.2 - - - - - - -
28/03:30am 8.0 NW 4 5 1012.0 - 1.2 - - - - - - -
28/03:00am 8.1 NW 6 8 1012.0 - 1.2 - - - - - - -
28/02:30am 8.0 NW 6 8 1012.1 - 1.2 - - - - - - -
28/02:00am 8.4 NW 6 9 1012.1 - 1.2 - - - - - - -
28/01:30am 8.2 NW 5 7 1012.1 - 1.2 - - - - - - -
28/01:00am 8.4 NW 5 6 1012.2 - 1.2 - - - - - - -
28/12:30am 8.0 NNW 3 4 1012.4 - 1.2 - - - - - - -
28/12:00am 8.1 N 3 4 1012.4 - 1.2 - - - - - - -
 
Date/Time
EST
Temp
°C
Wind Pressure Rain since
9am
mm
Weather Cloud Vis
km
Sea
Height
m
Swell
Dir  Spd
kts
Gust
kts
hPa Trend Height
m
Period
s
Dir
27/11:30pm 8.2 N 3 4 1012.5 - 1.2 - - - - - - -
27/11:00pm 8.3 N 1 2 1012.4 - 1.2 - - - - - - -
27/10:30pm 8.7 NNE 3 4 1012.6 - 1.2 - - - - - - -
27/10:00pm 9.4 N 2 3 1012.7 - 1.2 - - - - - - -
27/09:30pm 9.9 N 2 3 1012.7 - 1.2 - - - - - - -
27/09:00pm 10.1 N 3 4 1012.9 - 1.2 - - - - - - -
27/08:30pm 10.6 N 3 3 1012.9 - 1.2 - - - - - - -
27/08:00pm 10.8 N 3 3 1012.8 - 1.2 - - - - - - -
27/07:30pm 11.0 CALM 0 0 1012.7 - 1.2 - - - - - - -
27/07:00pm 11.7 CALM 0 1 1012.8 - 1.2 - - - - - - -
27/06:30pm 12.6 WNW 2 2 1012.7 - 1.2 - - - - - - -
27/06:00pm 13.2 W 5 7 1012.5 - 1.2 - - - - - - -
27/05:30pm 14.2 WSW 7 12 1012.4 - 1.2 - - - - - - -
27/05:00pm 14.6 W 8 11 1012.1 - 1.2 - - - - - - -
27/04:30pm 15.1 W 9 13 1011.7 - 1.2 - - - - - - -
27/04:00pm 15.3 W 11 16 1011.6 - 1.2 - - - - - - -
27/03:30pm 15.2 WSW 11 15 1011.4 - 1.2 - - - - - - -
27/03:00pm 15.2 WSW 11 18 1011.5 - 1.2 - - - - - - -
27/02:30pm 14.3 WSW 10 17 1011.5 - 1.2 - - - - - - -
27/02:00pm 14.8 W 14 20 1011.6 - 1.2 - - - - - - -
27/01:30pm 12.9 W 10 15 1011.8 - 1.2 - - - - - - -
27/01:00pm 13.4 W 12 19 1011.7 - 1.2 - - - - - - -
27/12:30pm 11.8 W 12 17 1011.7 - 1.2 - - - - - - -
27/12:00pm 13.0 WNW 11 17 1011.5 - 0.4 Rain - - - - - -
27/11:30am 14.7 NW 9 13 1011.3 - 0.0 - - - - - - -
27/11:00am 14.1 W 10 15 1011.5 - 0.0 - - - - - - -
27/10:30am 12.6 W 8 13 1011.6 - 0.0 - - - - - - -
27/10:00am 12.0 WNW 9 15 1011.6 - 0.0 - - - - - - -
27/09:30am 10.9 WNW 9 15 1011.5 - 0.0 - - - - - - -
27/09:00am 9.8 WNW 8 14 1011.3 - 7.0 - - - - - - -
27/08:30am 8.9 WNW 9 17 1011.2 - 7.0 - - - - - - -
27/08:00am 7.8 WNW 10 20 1011.0 - 7.0 - - - - - - -
27/07:30am 7.4 WNW 11 21 1010.6 - 7.0 - - - - - - -
27/07:00am 7.3 WNW 7 11 1010.5 - 7.0 - - - - - - -
27/06:30am 6.1 WNW 6 8 1010.3 - 7.0 - - - - - - -
27/06:00am 5.8 NW 4 7 1009.8 - 7.0 - - - - - - -
27/05:30am 5.8 WNW 4 7 1009.6 - 7.0 - - - - - - -
27/05:00am 5.7 W 4 6 1009.5 - 7.0 - - - - - - -
27/04:30am 6.1 WNW 6 9 1009.4 - 7.0 - - - - - - -
27/04:00am 6.5 WNW 7 11 1009.3 - 7.0 - - - - - - -
27/03:30am 6.8 WNW 7 12 1009.1 - 7.0 - - - - - - -
27/03:00am 7.0 WNW 7 13 1008.9 - 7.0 - - - - - - -
27/02:30am 7.3 WNW 8 17 1009.1 - 7.0 - - - - - - -
27/02:00am 7.6 NW 10 14 1009.0 - 7.0 - - - - - - -
27/01:30am 8.1 WNW 7 11 1009.3 - 7.0 - - - - - - -
27/01:00am 8.2 WNW 7 10 1009.5 - 7.0 - - - - - - -
27/12:30am 8.3 WNW 8 11 1009.4 - 7.0 - - - - - - -
27/12:00am 7.9 WNW 4 7 1009.5 - 7.0 - - - - - - -
 
Date/Time
EST
Temp
°C
Wind Pressure Rain since
9am
mm
Weather Cloud Vis
km
Sea
Height
m
Swell
Dir  Spd
kts
Gust
kts
hPa Trend Height
m
Period
s
Dir
26/11:30pm 7.9 NW 3 5 1009.6 - 7.0 - - - - - - -
26/11:00pm 8.0 WNW 3 5 1009.9 - 7.0 - - - - - - -
26/10:30pm 8.1 NW 5 6 1010.1 - 7.0 - - - - - - -
26/10:00pm 8.1 NW 2 3 1010.1 - 7.0 - - - - - - -
26/09:30pm 8.1 NNW 3 5 1010.0 - 7.0 - - - - - - -
26/09:00pm 8.2 NNW 4 7 1010.2 - 7.0 Recent precip. - - - - - -
26/08:30pm 8.2 WNW 6 9 1010.4 - 6.4 - - - - - - -
26/08:00pm 8.3 W 8 14 1010.6 - 6.2 - - - - - - -
26/07:30pm 8.4 W 13 19 1010.5 - 4.0 - - - - - - -
26/07:19pm 9.1 WNW 13 24 1010.6 - 2.6 - - - - - - -
26/07:00pm 11.6 NNW 7 10 1009.3 - 0.2 - - - - - - -
26/06:30pm 11.8 NNW 8 13 1008.8 - 0.0 - - - - - - -
26/06:00pm 12.9 NW 11 23 1008.6 - 0.0 - - - - - - -
26/05:30pm 14.3 NNW 10 20 1008.4 - 0.0 - - - - - - -
26/05:26pm 14.6 NNW 7 20 1008.3 - 0.0 - - - - - - -
26/05:00pm 14.6 NNE 3 5 1008.1 - 0.0 - - - - - - -
26/04:30pm 15.3 N 7 9 1007.8 - 0.0 - - - - - - -
26/04:00pm 16.0 NNW 7 12 1007.9 - 0.0 - - - - - - -
26/03:30pm 16.2 N 5 8 1008.1 - 0.0 - - - - - - -
26/03:00pm 16.2 NNW 5 11 1008.5 - 0.0 - - - - - - -
26/02:30pm 15.4 NW 9 14 1009.0 - 0.0 - - - - - - -
26/02:00pm 15.9 NW 8 12 1009.2 - 0.0 - - - - - - -
26/01:30pm 15.6 NW 8 14 1009.5 - 0.0 - - - - - - -
26/01:00pm 16.7 NW 10 13 1009.9 - 0.0 - - - - - - -
26/12:30pm 17.1 NW 8 14 1010.3 - 0.0 - - - - - - -
26/12:00pm 16.3 NW 9 13 1010.9 - 0.0 - - - - - - -
26/11:30am 15.1 NW 8 15 1011.3 - 0.0 - - - - - - -
26/11:00am 14.7 NW 5 9 1011.6 - 0.0 - - - - - - -
26/10:30am 14.1 NW 6 10 1012.0 - 0.0 - - - - - - -
26/10:00am 14.5 NNW 6 10 1012.3 - 0.0 - - - - - - -

Other Formats:

Comma delimited format used in spreadsheet applications
http://www.bom.gov.au/fwo/IDV60701/IDV60701.94857.axf

JavaScript Object Notation format (JSON) in row-major order
http://www.bom.gov.au/fwo/IDV60701/IDV60701.94857.json